• Join FlightAware (Why Join?)
  • Login
  • US Flag 
04:35AM EDT


 

Airport Tracker/Info


-or-


 

Live Flight TrackerFlight Track Log ✈ EJA131 ✈ 27-Apr-2013 ✈ KMIA - KTPA

Flight Track Log - Related Links

Times and Time Zones

All times are in EDT time to prevent confusion due to time zone crossing. See the EJA131 flight status page for this flight to view local times or setup timezone preferences in your user account.

Time Position Orientation Groundspeed Altitude Reporting Facility
EDT Latitude Longitude Course Direction KTS MPH feet Rate Location/Type
04:41PM 25.8003 -80.2722 82° East 194 223 800  Level Miami Center
04:42PM 25.8081 -80.2078 82° East 263 303 3,700 3,000 Climbing Miami Center
04:43PM 25.8256 -80.1669 65° Northeast 262 302 5,500 1,980 Climbing Miami Center
04:44PM 25.8969 -80.1619 North 234 269 7,000 780 Climbing Miami Center
04:45PM 25.9689 -80.2053 332° Northwest 205 236 7,100 720 Climbing Miami Center
04:46PM 26.0089 -80.2850 299° West 229 264 8,500 1,800 Climbing Miami Center
04:47PM 26.0486 -80.3694 298° West 272 313 10,800 2,520 Climbing Miami Center
04:48PM 26.0942 -80.4703 297° West 318 366 13,600 2,520 Climbing Miami Center
04:49PM 26.1339 -80.5594 296° West 329 379 15,900 1,200 Climbing Miami Center
04:50PM 26.1772 -80.6556 297° West 334 384 16,000  Climbing Miami Center
04:51PM 26.2228 -80.7544 297° West 345 397 16,000  Level Miami Center
04:52PM 26.2853 -80.8397 309° West 351 404 16,100 60 Climbing Miami Center
04:54PM 26.3934 -80.9460 319° Northwest  Level Estimated
05:01PM 26.8251 -81.3729 319° Northwest  Level Estimated
05:02PM 26.8867 -81.4342 318° Northwest  Level Estimated
05:03PM 26.9482 -81.4955 318° Northwest  Level Estimated
05:04PM 27.0098 -81.5569 318° Northwest  Level Estimated
05:05PM 27.0713 -81.6184 318° Northwest  Level Estimated
05:06PM 27.1327 -81.6799 318° Northwest  Level Estimated
05:07PM 27.1942 -81.7415 318° Northwest  Level Estimated
05:08PM 27.2556 -81.8032 318° Northwest  Level Estimated
05:09PM 27.3170 -81.8649 318° Northwest  Level Estimated
05:10PM 27.3783 -81.9267 318° Northwest  Level Estimated
05:11PM 27.4396 -81.9886 318° Northwest  Level Estimated
05:12PM 27.5009 -82.0505 318° Northwest  Level Estimated
05:13PM 27.5622 -82.1125 318° Northwest  Level Estimated
05:14PM 27.6235 -82.1746 318° Northwest  Level Estimated
05:15PM 27.6847 -82.2367 318° Northwest  Level Estimated
05:16PM 27.7459 -82.2990 318° Northwest  Level Estimated
05:17PM 27.8071 -82.3612 318° Northwest  Level Estimated
05:18PM 27.8682 -82.4236 318° Northwest  Level Estimated
05:19PM 27.9293 -82.4860 318° Northwest  Level Estimated
05:20PM 27.9755 -82.5332 318° Northwest  Level Estimated
05:21PM 27.9755 -82.5332 North  Level Estimated
05:22PM 27.9755 -82.5332 North  Level Estimated
05:23PM 27.9755 -82.5332 North  Level Estimated
05:24PM 27.9755 -82.5332 North  Level Estimated
05:25PM 27.9755 -82.5332 North  Level Estimated
05:26PM 27.9755 -82.5332 North  Level Estimated
05:27PM 27.9755 -82.5332 North  Level Estimated
05:28PM 27.9755 -82.5332 North  Level Estimated
05:29PM 27.9755 -82.5332 North  Level Estimated
05:30PM 27.9755 -82.5332 North  Level Estimated
05:31PM 27.9755 -82.5332 North  Level Estimated
05:32PM 27.9755 -82.5332 North  Level Estimated
05:33PM 27.9755 -82.5332 North  Level Estimated